sensor_id;sensor_type;location;lat;lon;timestamp;pressure;altitude;pressure_sealevel;temperature;humidity
3142;BME280;1581;51.568;6.998;2023-03-22T00:00:30;100372.03;;;11.92;100.00
3142;BME280;1581;51.568;6.998;2023-03-22T00:02:59;100369.75;;;11.76;100.00
3142;BME280;1581;51.568;6.998;2023-03-22T00:05:26;100363.19;;;11.72;100.00
3142;BME280;1581;51.568;6.998;2023-03-22T00:07:55;100353.72;;;12.02;100.00
3142;BME280;1581;51.568;6.998;2023-03-22T00:10:25;100356.97;;;12.23;100.00
3142;BME280;1581;51.568;6.998;2023-03-22T00:12:57;100360.91;;;12.07;100.00
3142;BME280;1581;51.568;6.998;2023-03-22T00:15:24;100353.72;;;12.02;100.00
3142;BME280;1581;51.568;6.998;2023-03-22T00:17:55;100363.13;;;12.23;100.00
3142;BME280;1581;51.568;6.998;2023-03-22T00:20:26;100363.13;;;12.23;100.00
3142;BME280;1581;51.568;6.998;2023-03-22T00:22:55;100360.91;;;12.20;100.00
3142;BME280;1581;51.568;6.998;2023-03-22T00:25:25;100354.94;;;12.12;100.00
3142;BME280;1581;51.568;6.998;2023-03-22T00:27:53;100350.03;;;12.02;100.00
3142;BME280;1581;51.568;6.998;2023-03-22T00:30:21;100346.94;;;12.12;100.00
3142;BME280;1581;51.568;6.998;2023-03-22T00:32:48;100342.59;;;12.24;100.00
3142;BME280;1581;51.568;6.998;2023-03-22T00:35:16;100339.75;;;11.93;100.00
3142;BME280;1581;51.568;6.998;2023-03-22T00:37:44;100333.97;;;12.15;100.00
3142;BME280;1581;51.568;6.998;2023-03-22T00:40:13;100340.94;;;12.23;100.00
3142;BME280;1581;51.568;6.998;2023-03-22T00:42:42;100340.16;;;12.03;100.00
3142;BME280;1581;51.568;6.998;2023-03-22T00:45:11;100330.28;;;12.10;100.00
3142;BME280;1581;51.568;6.998;2023-03-22T00:47:39;100331.06;;;12.30;100.00
3142;BME280;1581;51.568;6.998;2023-03-22T00:50:08;100325.28;;;12.39;100.00
3142;BME280;1581;51.568;6.998;2023-03-22T00:52:36;100324.13;;;12.16;100.00
3142;BME280;1581;51.568;6.998;2023-03-22T00:55:05;100322.94;;;11.86;100.00
3142;BME280;1581;51.568;6.998;2023-03-22T00:57:33;100313.69;;;12.02;100.00
3142;BME280;1581;51.568;6.998;2023-03-22T01:00:04;100310.56;;;11.98;100.00
3142;BME280;1581;51.568;6.998;2023-03-22T01:02:41;100308.75;;;11.92;100.00
3142;BME280;1581;51.568;6.998;2023-03-22T01:05:10;100308.13;;;11.97;100.00
3142;BME280;1581;51.568;6.998;2023-03-22T01:07:41;100301.69;;;12.23;100.00
3142;BME280;1581;51.568;6.998;2023-03-22T01:10:11;100302.13;;;12.27;100.00
3142;BME280;1581;51.568;6.998;2023-03-22T01:12:38;100297.63;;;12.08;100.00
3142;BME280;1581;51.568;6.998;2023-03-22T01:15:09;100297.81;;;12.13;100.00
3142;BME280;1581;51.568;6.998;2023-03-22T01:17:37;100298.75;;;12.38;100.00
3142;BME280;1581;51.568;6.998;2023-03-22T01:20:07;100288.63;;;12.59;100.00
3142;BME280;1581;51.568;6.998;2023-03-22T01:22:34;100287.88;;;12.39;100.00
3142;BME280;1581;51.568;6.998;2023-03-22T01:25:02;100289.91;;;12.44;100.00
3142;BME280;1581;51.568;6.998;2023-03-22T01:27:30;100284.81;;;12.42;100.00
3142;BME280;1581;51.568;6.998;2023-03-22T01:29:58;100289.44;;;12.60;100.00
3142;BME280;1581;51.568;6.998;2023-03-22T01:32:27;100280.03;;;12.44;100.00
3142;BME280;1581;51.568;6.998;2023-03-22T01:34:54;100277.97;;;12.46;100.00
3142;BME280;1581;51.568;6.998;2023-03-22T01:37:22;100269.47;;;12.18;100.00
3142;BME280;1581;51.568;6.998;2023-03-22T01:39:53;100266.28;;;12.41;100.00
3142;BME280;1581;51.568;6.998;2023-03-22T01:42:22;100261.50;;;12.56;100.00
3142;BME280;1581;51.568;6.998;2023-03-22T01:45:32;100252.38;;;12.32;100.00
3142;BME280;1581;51.568;6.998;2023-03-22T01:48:08;100253.59;;;12.23;100.00
3142;BME280;1581;51.568;6.998;2023-03-22T01:50:44;100242.38;;;12.08;100.00
3142;BME280;1581;51.568;6.998;2023-03-22T01:53:14;100243.97;;;12.22;100.00
3142;BME280;1581;51.568;6.998;2023-03-22T01:55:45;100250.13;;;12.23;100.00
3142;BME280;1581;51.568;6.998;2023-03-22T01:58:14;100237.44;;;11.99;100.00
3142;BME280;1581;51.568;6.998;2023-03-22T02:00:44;100224.28;;;12.10;100.00
3142;BME280;1581;51.568;6.998;2023-03-22T02:03:14;100237.88;;;12.02;100.00
3142;BME280;1581;51.568;6.998;2023-03-22T02:05:47;100230.41;;;12.24;100.00
3142;BME280;1581;51.568;6.998;2023-03-22T02:08:15;100232.56;;;11.83;100.00
3142;BME280;1581;51.568;6.998;2023-03-22T02:10:43;100218.09;;;12.10;100.00
3142;BME280;1581;51.568;6.998;2023-03-22T02:13:32;100217.22;;;12.29;100.00
3142;BME280;1581;51.568;6.998;2023-03-22T02:16:17;100217.97;;;11.86;100.00
3142;BME280;1581;51.568;6.998;2023-03-22T02:19:17;100214.50;;;11.92;100.00
3142;BME280;1581;51.568;6.998;2023-03-22T02:22:20;100206.88;;;11.89;100.00
3142;BME280;1581;51.568;6.998;2023-03-22T02:25:30;100203.38;;;11.88;100.00
3142;BME280;1581;51.568;6.998;2023-03-22T02:28:39;100202.03;;;11.73;100.00
3142;BME280;1581;51.568;6.998;2023-03-22T02:31:38;100194.78;;;11.93;100.00
3142;BME280;1581;51.568;6.998;2023-03-22T02:34:43;100195.22;;;11.77;100.00
3142;BME280;1581;51.568;6.998;2023-03-22T02:41:10;100188.44;;;11.74;100.00
3142;BME280;1581;51.568;6.998;2023-03-22T02:43:47;100189.47;;;11.80;100.00
3142;BME280;1581;51.568;6.998;2023-03-22T02:46:22;100185.38;;;11.45;100.00
3142;BME280;1581;51.568;6.998;2023-03-22T02:49:00;100178.63;;;11.62;100.00
3142;BME280;1581;51.568;6.998;2023-03-22T02:51:35;100178.81;;;11.67;100.00
3142;BME280;1581;51.568;6.998;2023-03-22T02:54:09;100173.50;;;11.54;100.00
3142;BME280;1581;51.568;6.998;2023-03-22T02:56:45;100177.13;;;11.85;100.00
3142;BME280;1581;51.568;6.998;2023-03-22T02:59:15;100174.31;;;11.61;100.00
3142;BME280;1581;51.568;6.998;2023-03-22T03:01:47;100179.03;;;11.65;100.00
3142;BME280;1581;51.568;6.998;2023-03-22T03:04:19;100168.53;;;11.70;100.00
3142;BME280;1581;51.568;6.998;2023-03-22T03:06:51;100166.06;;;11.82;100.00
3142;BME280;1581;51.568;6.998;2023-03-22T03:09:20;100161.34;;;11.77;100.00
3142;BME280;1581;51.568;6.998;2023-03-22T03:11:52;100171.03;;;11.33;100.00
3142;BME280;1581;51.568;6.998;2023-03-22T03:14:23;100165.06;;;11.70;100.00
3142;BME280;1581;51.568;6.998;2023-03-22T03:17:10;100160.75;;;11.49;100.00
3142;BME280;1581;51.568;6.998;2023-03-22T03:19:49;100170.22;;;11.39;100.00
3142;BME280;1581;51.568;6.998;2023-03-22T03:22:47;100167.94;;;11.49;100.00
3142;BME280;1581;51.568;6.998;2023-03-22T03:25:25;100167.09;;;11.48;100.00
3142;BME280;1581;51.568;6.998;2023-03-22T03:28:03;100168.56;;;11.38;100.00
3142;BME280;1581;51.568;6.998;2023-03-22T03:30:36;100162.84;;;11.21;100.00
3142;BME280;1581;51.568;6.998;2023-03-22T03:33:08;100160.56;;;11.31;100.00
3142;BME280;1581;51.568;6.998;2023-03-22T03:35:48;100160.97;;;11.28;100.00
3142;BME280;1581;51.568;6.998;2023-03-22T03:38:21;100151.38;;;11.02;100.00
3142;BME280;1581;51.568;6.998;2023-03-22T03:40:56;100146.84;;;11.21;100.00
3142;BME280;1581;51.568;6.998;2023-03-22T03:43:28;100148.25;;;11.37;100.00
3142;BME280;1581;51.568;6.998;2023-03-22T03:45:56;100148.09;;;11.32;100.00
3142;BME280;1581;51.568;6.998;2023-03-22T03:48:28;100142.75;;;11.19;100.00
3142;BME280;1581;51.568;6.998;2023-03-22T03:50:57;100141.50;;;11.34;100.00
3142;BME280;1581;51.568;6.998;2023-03-22T03:53:25;100143.94;;;11.49;100.00
3142;BME280;1581;51.568;6.998;2023-03-22T03:55:53;100139.63;;;11.48;100.00
3142;BME280;1581;51.568;6.998;2023-03-22T03:58:21;100143.31;;;11.40;100.00
3142;BME280;1581;51.568;6.998;2023-03-22T04:00:50;100151.75;;;11.57;100.00
3142;BME280;1581;51.568;6.998;2023-03-22T04:03:18;100144.16;;;11.34;100.00
3142;BME280;1581;51.568;6.998;2023-03-22T04:05:46;100139.06;;;11.20;100.00
3142;BME280;1581;51.568;6.998;2023-03-22T04:08:14;100136.56;;;11.31;100.00
3142;BME280;1581;51.568;6.998;2023-03-22T04:10:42;100134.97;;;11.11;100.00
3142;BME280;1581;51.568;6.998;2023-03-22T04:13:10;100132.31;;;11.17;100.00
3142;BME280;1581;51.568;6.998;2023-03-22T04:15:37;100137.81;;;11.29;100.00
3142;BME280;1581;51.568;6.998;2023-03-22T04:18:07;100139.06;;;11.20;100.00
3142;BME280;1581;51.568;6.998;2023-03-22T04:20:36;100135.94;;;11.36;100.00
3142;BME280;1581;51.568;6.998;2023-03-22T04:23:06;100139.28;;;10.86;100.00
3142;BME280;1581;51.568;6.998;2023-03-22T04:25:36;100128.41;;;11.20;100.00
3142;BME280;1581;51.568;6.998;2023-03-22T04:28:04;100128.41;;;11.07;100.00
3142;BME280;1581;51.568;6.998;2023-03-22T04:30:32;100126.34;;;11.15;100.00
3142;BME280;1581;51.568;6.998;2023-03-22T04:33:01;100121.03;;;10.96;100.00
3142;BME280;1581;51.568;6.998;2023-03-22T04:35:34;100113.84;;;10.90;100.00
3142;BME280;1581;51.568;6.998;2023-03-22T04:38:02;100118.97;;;10.92;100.00
3142;BME280;1581;51.568;6.998;2023-03-22T04:40:29;100119.81;;;10.86;100.00
3142;BME280;1581;51.568;6.998;2023-03-22T04:43:01;100117.72;;;11.07;100.00
3142;BME280;1581;51.568;6.998;2023-03-22T04:45:29;100120.19;;;11.09;100.00
3142;BME280;1581;51.568;6.998;2023-03-22T04:47:57;100119.59;;;10.94;100.00
3142;BME280;1581;51.568;6.998;2023-03-22T04:50:25;100131.66;;;10.83;100.00
3142;BME280;1581;51.568;6.998;2023-03-22T04:52:55;100131.69;;;10.77;100.00
3142;BME280;1581;51.568;6.998;2023-03-22T04:55:23;100115.06;;;10.94;100.00
3142;BME280;1581;51.568;6.998;2023-03-22T04:57:52;100113.63;;;10.79;100.00
3142;BME280;1581;51.568;6.998;2023-03-22T05:00:21;100124.31;;;10.72;100.00
3142;BME280;1581;51.568;6.998;2023-03-22T05:02:49;100117.53;;;10.76;100.00
3142;BME280;1581;51.568;6.998;2023-03-22T05:05:16;100121.63;;;10.85;100.00
3142;BME280;1581;51.568;6.998;2023-03-22T05:07:44;100120.81;;;10.65;100.00
3142;BME280;1581;51.568;6.998;2023-03-22T05:10:13;100117.72;;;10.62;100.00
3142;BME280;1581;51.568;6.998;2023-03-22T05:12:41;100116.09;;;10.74;100.00
3142;BME280;1581;51.568;6.998;2023-03-22T05:15:09;100114.06;;;10.76;100.00
3142;BME280;1581;51.568;6.998;2023-03-22T05:17:36;100109.53;;;10.83;100.00
3142;BME280;1581;51.568;6.998;2023-03-22T05:20:05;100110.78;;;10.87;100.00
3142;BME280;1581;51.568;6.998;2023-03-22T05:22:35;100110.75;;;11.19;100.00
3142;BME280;1581;51.568;6.998;2023-03-22T05:25:07;100113.41;;;11.13;100.00
3142;BME280;1581;51.568;6.998;2023-03-22T05:27:36;100113.59;;;11.24;100.00
3142;BME280;1581;51.568;6.998;2023-03-22T05:30:06;100123.06;;;11.13;100.00
3142;BME280;1581;51.568;6.998;2023-03-22T05:32:34;100122.44;;;11.05;100.00
3142;BME280;1581;51.568;6.998;2023-03-22T05:35:03;100117.34;;;11.04;100.00
3142;BME280;1581;51.568;6.998;2023-03-22T05:37:32;100122.00;;;11.34;100.00
3142;BME280;1581;51.568;6.998;2023-03-22T05:40:01;100114.47;;;10.92;100.00
3142;BME280;1581;51.568;6.998;2023-03-22T05:42:30;100121.63;;;10.98;100.00
3142;BME280;1581;51.568;6.998;2023-03-22T05:45:00;100115.25;;;11.25;100.00
3142;BME280;1581;51.568;6.998;2023-03-22T05:47:27;100117.16;;;10.92;100.00
3142;BME280;1581;51.568;6.998;2023-03-22T05:49:55;100119.38;;;11.21;100.00
3142;BME280;1581;51.568;6.998;2023-03-22T05:52:23;100118.50;;;11.40;100.00
3142;BME280;1581;51.568;6.998;2023-03-22T05:54:50;100121.41;;;11.32;100.00
3142;BME280;1581;51.568;6.998;2023-03-22T05:57:18;100124.09;;;11.00;100.00
3142;BME280;1581;51.568;6.998;2023-03-22T05:59:46;100123.06;;;11.20;100.00
3142;BME280;1581;51.568;6.998;2023-03-22T06:02:15;100116.25;;;11.24;100.00
3142;BME280;1581;51.568;6.998;2023-03-22T06:04:42;100125.50;;;11.41;100.00
3142;BME280;1581;51.568;6.998;2023-03-22T06:07:10;100116.88;;;11.32;100.00
3142;BME280;1581;51.568;6.998;2023-03-22T06:09:38;100119.31;;;11.40;100.00
3142;BME280;1581;51.568;6.998;2023-03-22T06:12:05;100121.19;;;11.53;100.00
3142;BME280;1581;51.568;6.998;2023-03-22T06:14:33;100118.47;;;11.66;100.00
3142;BME280;1581;51.568;6.998;2023-03-22T06:17:01;100124.22;;;11.50;100.00
3142;BME280;1581;51.568;6.998;2023-03-22T06:19:30;100118.50;;;11.46;100.00
3142;BME280;1581;51.568;6.998;2023-03-22T06:21:57;100115.19;;;11.51;100.00
3142;BME280;1581;51.568;6.998;2023-03-22T06:24:30;100123.03;;;11.52;100.00
3142;BME280;1581;51.568;6.998;2023-03-22T06:26:59;100109.28;;;11.99;100.00
3142;BME280;1581;51.568;6.998;2023-03-22T06:29:26;100110.91;;;12.00;100.00
3142;BME280;1581;51.568;6.998;2023-03-22T06:31:54;100114.31;;;12.20;100.00
3142;BME280;1581;51.568;6.998;2023-03-22T06:34:22;100109.81;;;12.20;100.00
3142;BME280;1581;51.568;6.998;2023-03-22T06:36:51;100100.91;;;11.89;100.00
3142;BME280;1581;51.568;6.998;2023-03-22T06:39:19;100106.41;;;12.01;100.00
3142;BME280;1581;51.568;6.998;2023-03-22T06:41:47;100101.06;;;12.07;100.00
3142;BME280;1581;51.568;6.998;2023-03-22T06:44:15;100098.13;;;12.15;100.00
3142;BME280;1581;51.568;6.998;2023-03-22T06:46:42;100095.50;;;12.02;100.00
3142;BME280;1581;51.568;6.998;2023-03-22T06:49:10;100098.44;;;11.94;100.00
3142;BME280;1581;51.568;6.998;2023-03-22T06:51:38;100102.28;;;12.04;100.00
3142;BME280;1581;51.568;6.998;2023-03-22T06:54:07;100104.59;;;11.95;100.00
3142;BME280;1581;51.568;6.998;2023-03-22T06:56:35;100097.78;;;12.05;100.00
3142;BME280;1581;51.568;6.998;2023-03-22T06:59:02;100097.94;;;12.10;100.00
3142;BME280;1581;51.568;6.998;2023-03-22T07:01:30;100088.47;;;12.14;100.00
3142;BME280;1581;51.568;6.998;2023-03-22T07:03:58;100088.53;;;12.01;100.00
3142;BME280;1581;51.568;6.998;2023-03-22T07:06:25;100086.44;;;12.09;100.00
3142;BME280;1581;51.568;6.998;2023-03-22T07:08:53;100076.31;;;12.18;100.00
3142;BME280;1581;51.568;6.998;2023-03-22T07:11:22;100090.56;;;12.05;100.00
3142;BME280;1581;51.568;6.998;2023-03-22T07:13:52;100090.00;;;12.28;100.00
3142;BME280;1581;51.568;6.998;2023-03-22T07:16:20;100096.72;;;12.12;100.00
3142;BME280;1581;51.568;6.998;2023-03-22T07:18:48;100101.69;;;12.33;100.00
3142;BME280;1581;51.568;6.998;2023-03-22T07:21:15;100098.94;;;12.15;100.00
3142;BME280;1581;51.568;6.998;2023-03-22T07:23:43;100090.25;;;12.26;100.00
3142;BME280;1581;51.568;6.998;2023-03-22T07:26:11;100089.03;;;12.53;100.00
3142;BME280;1581;51.568;6.998;2023-03-22T07:28:40;100094.13;;;12.92;100.00
3142;BME280;1581;51.568;6.998;2023-03-22T07:31:10;100091.63;;;13.15;100.00
3142;BME280;1581;51.568;6.998;2023-03-22T07:33:39;100110.91;;;13.59;100.00
3142;BME280;1581;51.568;6.998;2023-03-22T07:36:09;100095.78;;;13.11;100.00
3142;BME280;1581;51.568;6.998;2023-03-22T07:38:37;100094.75;;;13.12;100.00
3142;BME280;1581;51.568;6.998;2023-03-22T07:41:06;100091.09;;;13.06;100.00
3142;BME280;1581;51.568;6.998;2023-03-22T07:43:34;100084.44;;;13.15;100.00
3142;BME280;1581;51.568;6.998;2023-03-22T07:46:03;100087.34;;;13.50;100.00
3142;BME280;1581;51.568;6.998;2023-03-22T07:48:31;100089.72;;;13.40;100.00
3142;BME280;1581;51.568;6.998;2023-03-22T07:50:59;100087.03;;;13.40;100.00
3142;BME280;1581;51.568;6.998;2023-03-22T07:53:27;100085.75;;;13.06;100.00
3142;BME280;1581;51.568;6.998;2023-03-22T07:55:54;100097.41;;;12.88;100.00
3142;BME280;1581;51.568;6.998;2023-03-22T07:58:22;100100.28;;;12.62;100.00
3142;BME280;1581;51.568;6.998;2023-03-22T08:00:50;100093.91;;;12.63;100.00
3142;BME280;1581;51.568;6.998;2023-03-22T08:03:19;100091.28;;;12.56;100.00
3142;BME280;1581;51.568;6.998;2023-03-22T08:05:47;100082.28;;;12.75;100.00
3142;BME280;1581;51.568;6.998;2023-03-22T08:08:16;100085.84;;;12.93;100.00
3142;BME280;1581;51.568;6.998;2023-03-22T08:10:48;100084.97;;;12.99;100.00
3142;BME280;1581;51.568;6.998;2023-03-22T08:13:16;100084.31;;;13.04;100.00
3142;BME280;1581;51.568;6.998;2023-03-22T08:15:44;100085.50;;;13.08;100.00
3142;BME280;1581;51.568;6.998;2023-03-22T08:18:12;100095.09;;;12.97;100.00
3142;BME280;1581;51.568;6.998;2023-03-22T08:20:41;100092.19;;;12.99;100.00
3142;BME280;1581;51.568;6.998;2023-03-22T08:23:10;100101.91;;;12.93;100.00
3142;BME280;1581;51.568;6.998;2023-03-22T08:25:41;100095.94;;;12.91;100.00
3142;BME280;1581;51.568;6.998;2023-03-22T08:28:09;100119.59;;;12.94;100.00
3142;BME280;1581;51.568;6.998;2023-03-22T08:30:38;100100.88;;;12.94;100.00
3142;BME280;1581;51.568;6.998;2023-03-22T08:33:06;100099.69;;;12.84;100.00
3142;BME280;1581;51.568;6.998;2023-03-22T08:35:33;100116.19;;;12.81;100.00
3142;BME280;1581;51.568;6.998;2023-03-22T08:38:03;100133.75;;;12.95;100.00
3142;BME280;1581;51.568;6.998;2023-03-22T08:40:30;100119.84;;;12.87;100.00
3142;BME280;1581;51.568;6.998;2023-03-22T08:42:59;100111.50;;;13.01;100.00
3142;BME280;1581;51.568;6.998;2023-03-22T08:45:26;100107.47;;;12.92;100.00
3142;BME280;1581;51.568;6.998;2023-03-22T08:47:55;100111.78;;;13.17;100.00
3142;BME280;1581;51.568;6.998;2023-03-22T08:50:24;100105.13;;;13.02;100.00
3142;BME280;1581;51.568;6.998;2023-03-22T08:52:52;100099.75;;;13.26;100.00
3142;BME280;1581;51.568;6.998;2023-03-22T08:55:21;100109.47;;;13.21;100.00
3142;BME280;1581;51.568;6.998;2023-03-22T08:57:49;100097.53;;;12.99;100.00
3142;BME280;1581;51.568;6.998;2023-03-22T09:00:18;100107.13;;;13.31;100.00
3142;BME280;1581;51.568;6.998;2023-03-22T09:02:46;100108.16;;;13.48;100.00
3142;BME280;1581;51.568;6.998;2023-03-22T09:05:15;100107.00;;;13.62;100.00
3142;BME280;1581;51.568;6.998;2023-03-22T09:07:52;100111.38;;;13.56;100.00
3142;BME280;1581;51.568;6.998;2023-03-22T09:10:24;100107.06;;;13.55;100.00
3142;BME280;1581;51.568;6.998;2023-03-22T09:12:51;100096.03;;;13.81;98.31
3142;BME280;1581;51.568;6.998;2023-03-22T09:15:19;100110.97;;;13.35;99.59
3142;BME280;1581;51.568;6.998;2023-03-22T09:17:47;100096.94;;;13.57;100.00
3142;BME280;1581;51.568;6.998;2023-03-22T09:20:14;100110.84;;;13.66;98.61
3142;BME280;1581;51.568;6.998;2023-03-22T09:22:42;100107.06;;;13.55;98.84
3142;BME280;1581;51.568;6.998;2023-03-22T09:25:10;100096.13;;;13.57;99.26
3142;BME280;1581;51.568;6.998;2023-03-22T09:27:39;100095.78;;;13.82;97.68
3142;BME280;1581;51.568;6.998;2023-03-22T09:30:08;100105.91;;;13.98;97.06
3142;BME280;1581;51.568;6.998;2023-03-22T09:32:36;100091.59;;;13.75;98.78
3142;BME280;1581;51.568;6.998;2023-03-22T09:35:05;100092.47;;;13.87;99.99
3142;BME280;1581;51.568;6.998;2023-03-22T09:37:33;100096.13;;;13.57;100.00
3142;BME280;1581;51.568;6.998;2023-03-22T09:40:00;100097.34;;;13.18;100.00
3142;BME280;1581;51.568;6.998;2023-03-22T09:42:35;100088.94;;;13.15;100.00
3142;BME280;1581;51.568;6.998;2023-03-22T09:45:14;100097.34;;;13.18;100.00
3142;BME280;1581;51.568;6.998;2023-03-22T09:47:47;100110.81;;;13.30;100.00
3142;BME280;1581;51.568;6.998;2023-03-22T09:50:20;100097.16;;;13.56;100.00
3142;BME280;1581;51.568;6.998;2023-03-22T09:52:49;100091.13;;;13.60;100.00
3142;BME280;1581;51.568;6.998;2023-03-22T09:55:21;100088.38;;;13.49;100.00
3142;BME280;1581;51.568;6.998;2023-03-22T09:58:00;100096.41;;;13.67;100.00
3142;BME280;1581;51.568;6.998;2023-03-22T10:00:38;100085.69;;;13.84;100.00
3142;BME280;1581;51.568;6.998;2023-03-22T10:03:20;100075.13;;;13.89;99.50
3142;BME280;1581;51.568;6.998;2023-03-22T10:05:58;100076.84;;;13.84;99.13
3142;BME280;1581;51.568;6.998;2023-03-22T10:08:38;100080.75;;;13.99;98.23
3142;BME280;1581;51.568;6.998;2023-03-22T10:11:17;100086.19;;;13.93;99.02
3142;BME280;1581;51.568;6.998;2023-03-22T10:13:55;100086.28;;;13.86;98.24
3142;BME280;1581;51.568;6.998;2023-03-22T10:16:29;100086.53;;;13.67;97.62
3142;BME280;1581;51.568;6.998;2023-03-22T10:19:06;100069.84;;;13.83;98.15
3142;BME280;1581;51.568;6.998;2023-03-22T10:21:35;100075.06;;;13.60;98.83
3142;BME280;1581;51.568;6.998;2023-03-22T10:24:08;100071.59;;;14.07;97.12
3142;BME280;1581;51.568;6.998;2023-03-22T10:26:41;100062.59;;;14.83;93.37
3142;BME280;1581;51.568;6.998;2023-03-22T10:29:19;100054.22;;;14.91;89.91
3142;BME280;1581;51.568;6.998;2023-03-22T10:31:50;100068.44;;;14.80;91.37
3142;BME280;1581;51.568;6.998;2023-03-22T10:34:21;100066.66;;;14.74;91.01
3142;BME280;1581;51.568;6.998;2023-03-22T10:36:51;100072.75;;;14.81;91.42
3142;BME280;1581;51.568;6.998;2023-03-22T10:39:28;100075.44;;;14.92;92.04
3142;BME280;1581;51.568;6.998;2023-03-22T10:42:01;100076.00;;;14.60;91.57
3142;BME280;1581;51.568;6.998;2023-03-22T10:44:32;100083.84;;;14.32;92.19
3142;BME280;1581;51.568;6.998;2023-03-22T10:47:05;100085.50;;;14.15;95.18
3142;BME280;1581;51.568;6.998;2023-03-22T10:49:41;100081.78;;;14.16;94.01
3142;BME280;1581;51.568;6.998;2023-03-22T10:52:29;100086.03;;;14.35;93.77
3142;BME280;1581;51.568;6.998;2023-03-22T10:55:00;100072.09;;;14.45;93.01
3142;BME280;1581;51.568;6.998;2023-03-22T10:57:28;100078.00;;;14.35;93.08
3142;BME280;1581;51.568;6.998;2023-03-22T10:59:58;100074.19;;;14.54;92.95
3142;BME280;1581;51.568;6.998;2023-03-22T11:02:29;100072.41;;;15.12;91.97
3142;BME280;1581;51.568;6.998;2023-03-22T11:05:00;100066.22;;;14.88;91.64
3142;BME280;1581;51.568;6.998;2023-03-22T11:07:33;100064.22;;;15.18;90.11
3142;BME280;1581;51.568;6.998;2023-03-22T11:10:21;100075.31;;;14.87;88.75
3142;BME280;1581;51.568;6.998;2023-03-22T11:12:52;100065.78;;;14.39;92.01
3142;BME280;1581;51.568;6.998;2023-03-22T11:15:27;100072.47;;;14.60;90.44
3142;BME280;1581;51.568;6.998;2023-03-22T11:18:04;100062.28;;;14.39;92.07
3142;BME280;1581;51.568;6.998;2023-03-22T11:20:33;100077.38;;;14.63;90.98
3142;BME280;1581;51.568;6.998;2023-03-22T11:23:03;100065.34;;;14.54;91.21
3142;BME280;1581;51.568;6.998;2023-03-22T11:25:35;100067.00;;;13.96;92.34
3142;BME280;1581;51.568;6.998;2023-03-22T11:28:13;100071.00;;;14.05;93.47
3142;BME280;1581;51.568;6.998;2023-03-22T11:30:59;100074.09;;;14.20;93.15
3142;BME280;1581;51.568;6.998;2023-03-22T11:33:29;100069.06;;;14.41;91.37
3142;BME280;1581;51.568;6.998;2023-03-22T11:36:00;100072.84;;;13.75;93.46
3142;BME280;1581;51.568;6.998;2023-03-22T11:38:34;100071.97;;;13.92;94.37
3142;BME280;1581;51.568;6.998;2023-03-22T11:41:12;100073.31;;;14.01;93.63
3142;BME280;1581;51.568;6.998;2023-03-22T11:43:49;100071.59;;;14.07;93.70
3142;BME280;1581;51.568;6.998;2023-03-22T11:46:19;100067.41;;;14.11;95.06
3142;BME280;1581;51.568;6.998;2023-03-22T11:48:50;100070.03;;;14.17;94.48
3142;BME280;1581;51.568;6.998;2023-03-22T11:51:27;100069.38;;;14.33;95.09
3142;BME280;1581;51.568;6.998;2023-03-22T11:54:00;100069.44;;;13.97;96.75
3142;BME280;1581;51.568;6.998;2023-03-22T11:56:30;100063.91;;;14.10;97.46
3142;BME280;1581;51.568;6.998;2023-03-22T11:59:04;100056.00;;;13.68;100.00
3142;BME280;1581;51.568;6.998;2023-03-22T12:01:39;100051.69;;;13.85;100.00
3142;BME280;1581;51.568;6.998;2023-03-22T12:04:15;100053.28;;;13.57;100.00
3142;BME280;1581;51.568;6.998;2023-03-22T12:06:44;100049.34;;;13.59;100.00
3142;BME280;1581;51.568;6.998;2023-03-22T12:09:23;100051.16;;;13.47;100.00
3142;BME280;1581;51.568;6.998;2023-03-22T12:11:55;100053.81;;;13.65;100.00
3142;BME280;1581;51.568;6.998;2023-03-22T12:14:28;100052.50;;;13.85;100.00
3142;BME280;1581;51.568;6.998;2023-03-22T12:17:01;100056.78;;;14.22;96.96
3142;BME280;1581;51.568;6.998;2023-03-22T12:19:47;100052.06;;;13.88;95.85
3142;BME280;1581;51.568;6.998;2023-03-22T12:22:21;100047.06;;;13.92;94.37
3142;BME280;1581;51.568;6.998;2023-03-22T12:24:51;100066.69;;;14.04;95.12
3142;BME280;1581;51.568;6.998;2023-03-22T12:27:23;100054.25;;;14.09;94.48
3142;BME280;1581;51.568;6.998;2023-03-22T12:29:57;100049.63;;;14.16;91.59
3142;BME280;1581;51.568;6.998;2023-03-22T12:32:28;100050.91;;;14.14;91.12
3142;BME280;1581;51.568;6.998;2023-03-22T12:34:59;100060.22;;;13.93;91.17
3142;BME280;1581;51.568;6.998;2023-03-22T12:37:29;100059.75;;;13.67;92.32
3142;BME280;1581;51.568;6.998;2023-03-22T12:40:02;100060.50;;;13.74;92.15
3142;BME280;1581;51.568;6.998;2023-03-22T12:42:38;100051.84;;;13.72;92.37
3142;BME280;1581;51.568;6.998;2023-03-22T12:45:17;100055.22;;;13.68;93.33
3142;BME280;1581;51.568;6.998;2023-03-22T12:48:05;100061.84;;;13.47;95.80
3142;BME280;1581;51.568;6.998;2023-03-22T12:50:42;100070.09;;;13.46;96.26
3142;BME280;1581;51.568;6.998;2023-03-22T12:53:21;100071.56;;;13.77;95.13
3142;BME280;1581;51.568;6.998;2023-03-22T12:55:57;100069.66;;;13.31;96.32
3142;BME280;1581;51.568;6.998;2023-03-22T12:58:28;100074.47;;;13.58;96.03
3142;BME280;1581;51.568;6.998;2023-03-22T13:01:09;100061.75;;;13.54;95.45
3142;BME280;1581;51.568;6.998;2023-03-22T13:03:45;100059.75;;;13.67;92.71
3142;BME280;1581;51.568;6.998;2023-03-22T13:09:36;100054.91;;;13.75;93.12
3142;BME280;1581;51.568;6.998;2023-03-22T13:12:30;100059.09;;;14.01;93.11
3142;BME280;1581;51.568;6.998;2023-03-22T13:15:29;100059.56;;;13.80;93.10
3142;BME280;1581;51.568;6.998;2023-03-22T13:17:59;100059.66;;;13.73;92.85
3142;BME280;1581;51.568;6.998;2023-03-22T13:20:33;100057.41;;;13.88;93.38
3142;BME280;1581;51.568;6.998;2023-03-22T13:23:24;100048.66;;;13.81;91.78
3142;BME280;1581;51.568;6.998;2023-03-22T13:26:11;100051.28;;;14.17;91.87
3142;BME280;1581;51.568;6.998;2023-03-22T13:28:41;100056.50;;;13.94;93.06
3142;BME280;1581;51.568;6.998;2023-03-22T13:31:33;100052.56;;;13.97;92.67
3142;BME280;1581;51.568;6.998;2023-03-22T13:34:03;100046.94;;;14.16;91.73